Aeroporto :
LOGIN :

Iscrizione | Disclaimer

   EN    FR    IT 

 










Sommario :    VFR   VFR Marginale   IFR   IFR Intensivo   IFR Molto Intensivo
Visibilità : 
Base nubi : 
>= 8 km
>= 3000ft
5 / 8 km
1000 / 3000 ft
1500m / 5 km
500 / 1000 ft
800 / 1500m
200 / 500 ft
< 800m
< 200 ft
Simboli :   Temporali  Nebbia  Neve Forte  Precipitazioni Forti  Vento > 20 kt
SIGMETs :   Varie  Temporali  Ghiacco  Turbolenza  Onda orograficha  Ceneri Vulcaniche






- Altitudine del aeroporto : 1299 ft


EDTY - Adolf Würth

ULTIMO METAR :
  • 221550Z 05003KT 6000 NSC M01/M03 Q1033

METARs OBSOLETI :
  • 221520Z VRB02KT 6000 NSC M01/M03 Q1033
  • 221450Z 18006KT 140V230 7000 NSC M00/M03 Q1032
  • 221420Z 08004KT 040V110 6000 FEW009 M01/M03 Q1033
  • 221350Z 07005KT 040V100 6000 SCT008 M01/M03 Q1033
  • 221320Z 03008KT 6000 BKN009 M02/M04 Q1034

TAF TAF EDTY
Valido dal 22 a 15 ore il 23 a 00 ore UTC


221400Z 2215/2224 VRB03KT 6000 FEW009
TEMPO 2215/2219 4000 BR
BECMG 2219/2221 4000 BR BKN008



MetMap, La meteo Aeronautica in un colpo d'occhio ! - Copyright ORBIFLY Dicembre 2007 - Disclaimer

ORBIFLY MET'MAP TEAM :

Programmazione e sviluppo : Alexandra Zaïnal
Concezione : Baudouin d'Aumeries
Aiuto per la programmazione : Marc-Olivier Méhu
Supporto tecnico e logistico : Manuel Goepfert
Aiuto per la traduzione : Arnaldo La Scala

Contatto : metmap@orbifly.com




FONTI E CREDITI :

   NOAA